Apache Creek, New Mexico
Current Conditions -  °F | °C
As of 11:35 AM on Thursday 27 Nov 2014 (Local Time) from KJTC Reporting Station
Clear Clear  
Wind Chill: 15°   Ceiling: Unl
Heat Index: 15°   Visibility: 9mi
Dew Point: -16°   Wind: 3mph
Humidity: 11%   Direction: 120°ESE
Pressure: 30.48"   Gusts: NA
Location:  33.6665°N, 108.765°W
Report Text: KJTC 271835Z AUTO 12003KT 9SM CLR 15/M16 A3048 RMK AO2
Loading
Personal Weather Stations






























Interactive Weather Map New forecast layout! Learn more

10-Day Weather Forecast

Advertisements
Track Severe Weather on mobile